Terminal Aerodrome Forecast
Issued by NWS

Home | Current Version | Previous Version | Text Only | Print | Product List | Glossary On
Versions: 1 2 3 4 5 6 7 8 9 10 11 12 13 14 15 16
000
FTUS45 KRIW 012325
TAFCPR
TAF
KCPR 012325Z 0200/0224 36011KT P6SM VCTS SCT080CB BKN110
     FM020300 03007KT P6SM SCT110
     FM021000 VRB06KT P6SM FEW200
     FM021900 03010KT P6SM SCT100=

USA.gov is the U.S. government's official web portal to all federal, state and local government web resources and services.